首页
METAR-TAF:

METAR-TAF

机场 :

Kbely

布拉格, 捷克共和国

纬度: 50-07-17N, 经度: 14-32-37E, 海拔: 286米

当前天气观测

该预报发布于30分钟前的22:00 UTC
风速3节,风向北转西北,在西转西北北转东北之间变化
温度 15°C
湿度 72%
气压 1002 hPa
能见度10公里或以上
1500米以下无云,无积雨云

METAR: LKKB 032200Z 33003KT 290V020 CAVOK 15/10 Q1002

时间: 00:30 (22:30 UTC)

预报

该预报发布于5小时和30分钟前的17:00 UTC
预报有效从03日的 18点(UTC)到 04日的 18点(UTC)
风速2节,风向多变
能见度10公里或以上
1500米以下无云,无积雨云
短暂存在
从 03日的 18点(UTC)到 03日的 22点(UTC)
风速15节,风向东转东北,有时为25节阵风
能見度: 6000
多云层高于3000英尺, 积雨云.
雷暴, 雨
成为
从 04日的 06点(UTC)到 04日的 08点(UTC)
风速6节,风向南转南东
短暂存在
从 04日的 09点(UTC)到 04日的 18点(UTC)
风速14节,风向
能見度: 7000
多云层高于4000英尺, 积雨云.
雷暴, 雨
几率 40% :
短暂存在
从 04日的 11点(UTC)到 04日的 18点(UTC)
风速16节,风向南转西南,有时为28节阵风
能見度: 2000
多云层高于3000英尺, 积雨云.
雷暴, 雨

TAF: LKKB 031700Z 0318/0418 VRB02KT CAVOK TEMPO 0318/0322 06015G25KT 6000 TSRA BKN030CB BECMG 0406/0408 15006KT TEMPO 0409/0418 18014KT 7000 TSRA BKN040CB PROB40 TEMPO 0411/0418 21016G28KT 2000 TSRA BKN030CB

超过4000个机场的气象观测和天气预报(METAR&TAF报告)。

可查询的气象台以黄色和红色小点在地图上表示。

将鼠标移到小点上方,可查看气象台名称。

然后点击查看天气观测和预报。

如需切换地图:点击带黑十字的绿色按钮放大地图;点击带横线的绿色按钮缩小地图;或者点击绿色箭头查看邻近地区的地图。


METAR-TAF: